Time;durP1;ratioP1;P1;durP2;ratioP2;P2;SDS_P1;SDS_P2;PMS_P1;PMS_P2;Temp;Humidity;BMP_temperature;BMP_pressure;BME280_temperature;BME280_humidity;BME280_pressure;Samples;Min_cycle;Max_cycle;Signal;HPM_P1;HPM_P2
2022/06/04 00:04:12;;;;;;;8.63;6.63;;;;;;;17.74;59.49;100975.45;5250728;56;1136910;-72
2022/06/04 00:09:28;;;;;;;7.67;6.00;;;;;;;17.77;59.60;100965.78;5251072;56;1135126;-72
2022/06/04 00:19:57;;;;;;;11.60;6.33;;;;;;;17.73;59.63;100947.02;5164160;57;1139318;-72
2022/06/04 00:25:03;;;;;;;10.13;6.57;;;;;;;17.70;59.69;100942.50;5164162;57;1141636;-73
2022/06/04 00:30:10;;;;;;;6.37;5.40;;;;;;;17.68;59.80;100943.14;5164250;56;1141327;-72
2022/06/04 00:35:16;;;;;;;9.52;5.60;;;;;;;17.64;59.90;100946.62;5164375;56;1138995;-72
2022/06/04 00:40:53;;;;;;;6.03;5.13;;;;;;;17.58;60.09;100944.52;5164151;56;1139294;-72
2022/06/04 00:46:42;;;;;;;8.00;6.13;;;;;;;17.52;60.31;100939.30;5231723;56;1138998;-72
2022/06/04 00:51:52;;;;;;;6.00;5.33;;;;;;;17.42;60.55;100951.89;5250981;56;1139135;-72
2022/06/04 00:57:39;;;;;;;11.30;5.10;;;;;;;17.34;60.89;100949.65;5209047;56;1138993;-72
2022/06/04 01:03:07;;;;;;;8.50;5.63;;;;;;;17.15;60.79;100946.61;5164030;56;1141062;-72
2022/06/04 01:08:49;;;;;;;10.23;4.97;;;;;;;17.07;61.42;100947.38;5164101;56;1136409;-72
2022/06/04 01:14:14;;;;;;;15.47;6.07;;;;;;;17.06;61.72;100936.34;5164098;56;1139329;-72
2022/06/04 01:19:52;;;;;;;12.50;5.97;;;;;;;17.10;61.79;100931.54;5164037;57;1138926;-72
2022/06/04 01:25:25;;;;;;;8.40;6.10;;;;;;;17.03;61.69;100932.63;5164312;57;1141064;-73
2022/06/04 01:30:38;;;;;;;7.60;6.13;;;;;;;16.99;61.99;100938.41;5223699;56;1138930;-72
2022/06/04 01:35:54;;;;;;;8.53;5.30;;;;;;;16.87;61.98;100930.61;5250966;56;1138975;-72
2022/06/04 01:41:13;;;;;;;7.03;5.67;;;;;;;16.62;62.13;100930.45;5245804;56;1138957;-72
2022/06/04 01:46:39;;;;;;;9.40;5.37;;;;;;;16.48;62.81;100919.76;5221315;56;1139354;-73
2022/06/04 01:51:48;;;;;;;6.27;5.20;;;;;;;16.43;63.25;100908.67;4980276;59;1139211;-72
2022/06/04 01:57:02;;;;;;;11.40;6.40;;;;;;;16.35;63.34;100905.38;4980216;58;1139029;-72
2022/06/04 02:02:08;;;;;;;;;;;;;;;16.22;63.59;100900.88;4979818;58;1141329;-72
2022/06/04 02:07:30;;;;;;;9.13;6.50;;;;;;;16.13;64.06;100900.42;4978539;59;976433;-73
2022/06/04 02:12:39;;;;;;;8.33;5.90;;;;;;;16.20;64.69;100894.84;4979279;58;1136937;-72
2022/06/04 02:17:49;;;;;;;7.57;5.97;;;;;;;16.15;64.43;100892.62;4870923;60;1139318;-72
2022/06/04 02:22:55;;;;;;;8.53;5.50;;;;;;;16.02;64.49;100885.94;4856890;61;1139179;-72
2022/06/04 02:28:02;;;;;;;11.60;6.30;;;;;;;15.87;64.94;100883.38;5049831;57;1139279;-72
2022/06/04 02:33:13;;;;;;;10.53;6.87;;;;;;;15.91;65.70;100882.92;5116041;58;1141342;-72
2022/06/04 02:38:45;;;;;;;9.50;6.27;;;;;;;15.95;65.80;100880.81;5112778;58;1139119;-72
2022/06/04 02:44:21;;;;;;;9.43;7.20;;;;;;;15.98;66.14;100883.20;5114916;58;1136883;-72
2022/06/04 02:49:41;;;;;;;11.90;6.87;;;;;;;16.00;66.14;100883.41;5041486;58;1137297;-72
2022/06/04 02:55:18;;;;;;;10.17;5.87;;;;;;;15.82;66.04;100881.98;5092146;57;1138956;-72
2022/06/04 03:00:25;;;;;;;8.83;6.63;;;;;;;15.72;66.22;100881.66;5021613;59;1141147;-72
2022/06/04 03:05:31;;;;;;;13.28;7.28;;;;;;;15.61;66.96;100878.63;5108978;58;1138966;-72
2022/06/04 03:10:37;;;;;;;10.27;7.43;;;;;;;15.61;67.45;100879.97;5115905;58;1140995;-72
2022/06/04 03:15:43;;;;;;;21.57;8.07;;;;;;;15.63;67.81;100878.50;5115664;57;1141042;-72
2022/06/04 03:20:49;;;;;;;14.83;8.00;;;;;;;15.66;68.14;100873.72;5115529;58;1141116;-72
2022/06/04 03:25:55;;;;;;;8.93;7.97;;;;;;;15.66;68.06;100879.55;5115872;57;1141380;-72
2022/06/04 03:31:02;;;;;;;8.47;7.20;;;;;;;15.68;68.43;100885.09;5051349;58;1139259;-72
2022/06/04 03:36:12;;;;;;;10.80;7.17;;;;;;;15.79;68.52;100888.08;4992645;58;1139020;-72
2022/06/04 03:41:18;;;;;;;9.23;6.60;;;;;;;15.80;67.92;100882.61;5033928;58;1141158;-72
2022/06/04 03:46:27;;;;;;;12.53;6.60;;;;;;;15.73;68.11;100882.85;5105496;58;1139109;-72
2022/06/04 03:51:34;;;;;;;10.33;7.07;;;;;;;15.72;68.90;100875.83;5074575;58;1141053;-72
2022/06/04 03:56:39;;;;;;;12.70;6.30;;;;;;;15.82;69.88;100874.47;5116369;58;1141518;-72
2022/06/04 04:01:50;;;;;;;7.15;6.20;;;;;;;15.85;69.81;100874.67;5116020;58;1141050;-72
2022/06/04 04:06:57;;;;;;;6.87;5.70;;;;;;;15.90;70.06;100885.73;5116186;58;1139049;-72
2022/06/04 04:12:02;;;;;;;9.53;6.43;;;;;;;15.92;70.07;100881.94;5116012;58;1139010;-72
2022/06/04 04:17:09;;;;;;;6.83;6.13;;;;;;;15.97;70.63;100877.52;5099577;57;1139033;-72
2022/06/04 04:22:14;;;;;;;8.50;6.57;;;;;;;16.00;70.64;100874.07;5126640;56;1139626;-72
2022/06/04 04:27:20;;;;;;;17.03;8.43;;;;;;;16.13;71.12;100875.08;5167896;56;1138990;-72
2022/06/04 04:32:27;;;;;;;7.43;5.93;;;;;;;16.19;71.12;100881.98;5103327;56;1141300;-72
2022/06/04 04:37:34;;;;;;;6.80;5.60;;;;;;;16.26;70.95;100886.75;5117875;56;1139197;-72
2022/06/04 04:42:40;;;;;;;14.36;5.22;;;;;;;16.35;70.55;100885.86;5066673;57;1138984;-72
2022/06/04 04:47:48;;;;;;;10.17;6.27;;;;;;;16.45;70.61;100888.01;5089797;57;1141101;-72
2022/06/04 04:52:55;;;;;;;7.57;5.23;;;;;;;16.52;70.25;100896.59;5071403;57;1140991;-72
2022/06/04 04:58:02;;;;;;;10.57;6.20;;;;;;;16.60;70.25;100889.20;5112383;56;1139214;-72
2022/06/04 05:03:08;;;;;;;8.43;4.57;;;;;;;16.67;70.50;100895.64;5066182;57;1141404;-72
2022/06/04 05:08:14;;;;;;;28.40;5.37;;;;;;;16.77;70.89;100902.28;5064220;57;1139488;-72
2022/06/04 05:13:20;;;;;;;9.77;5.23;;;;;;;16.87;71.03;100899.89;5038895;57;1141268;-73
2022/06/04 05:18:25;;;;;;;8.93;5.30;;;;;;;16.99;70.81;100907.68;4954312;58;1139085;-72
2022/06/04 05:23:32;;;;;;;9.93;5.57;;;;;;;17.15;71.46;100909.19;5110496;57;1138658;-73
2022/06/04 05:28:37;;;;;;;6.77;5.10;;;;;;;17.28;71.38;100896.28;5109302;57;1138984;-72
2022/06/04 05:33:43;;;;;;;12.57;6.07;;;;;;;17.44;71.53;100899.10;5103388;57;1138966;-73
2022/06/04 05:38:48;;;;;;;15.87;4.80;;;;;;;17.61;71.67;100903.25;5098450;57;1141427;-72
2022/06/04 05:43:55;;;;;;;6.83;4.50;;;;;;;17.74;71.36;100901.87;5084686;57;1139019;-72
2022/06/04 05:49:00;;;;;;;6.00;5.20;;;;;;;17.87;71.64;100909.52;5119373;57;1137025;-72
2022/06/04 05:54:07;;;;;;;10.63;5.30;;;;;;;17.95;71.15;100920.27;5105021;57;1136909;-72
2022/06/04 05:59:17;;;;;;;11.73;4.97;;;;;;;18.10;71.59;100919.20;5139270;57;1139022;-72
2022/06/04 06:04:26;;;;;;;16.40;6.17;;;;;;;18.37;72.42;100920.84;5163799;56;1139023;-72
2022/06/04 06:09:32;;;;;;;8.08;5.68;;;;;;;18.59;71.28;100927.87;5163958;56;1139292;-72
2022/06/04 06:14:38;;;;;;;5.63;5.17;;;;;;;18.77;71.20;100926.94;5135815;57;1137131;-72
2022/06/04 06:19:44;;;;;;;6.70;5.30;;;;;;;19.09;71.08;100924.36;5141359;57;1137195;-73
2022/06/04 06:24:50;;;;;;;10.68;5.28;;;;;;;19.36;70.15;100914.33;5115580;58;1136913;-72
2022/06/04 06:29:56;;;;;;;12.87;6.17;;;;;;;19.56;70.55;100911.67;5115744;58;1138965;-72
2022/06/04 06:35:03;;;;;;;7.75;5.03;;;;;;;19.64;69.63;100913.87;5115758;58;1139035;-72
2022/06/04 06:40:09;;;;;;;4.73;4.33;;;;;;;19.76;69.79;100904.97;5115204;57;1136942;-73
2022/06/04 06:45:15;;;;;;;9.48;5.62;;;;;;;19.89;68.79;100902.60;5084599;58;1137288;-73
2022/06/04 06:50:22;;;;;;;7.22;4.60;;;;;;;19.96;68.91;100904.11;5177928;56;1136929;-71
2022/06/04 06:55:28;;;;;;;9.08;4.60;;;;;;;20.09;68.45;100925.91;5129442;56;1136918;-70
2022/06/04 07:00:35;;;;;;;21.15;5.28;;;;;;;20.14;68.62;100930.27;5026663;57;1137153;-71
2022/06/04 07:05:41;;;;;;;20.85;5.30;;;;;;;20.22;68.78;100931.58;5021639;58;1136889;-73
2022/06/04 07:10:47;;;;;;;13.60;4.90;;;;;;;20.40;69.53;100934.59;5022282;58;1136953;-72
2022/06/04 07:15:54;;;;;;;4.82;4.30;;;;;;;20.64;68.89;100927.77;5026086;58;1141091;-73
2022/06/04 07:20:59;;;;;;;11.33;4.30;;;;;;;20.92;68.50;100924.14;5070293;57;1139160;-71
2022/06/04 07:26:07;;;;;;;13.50;3.83;;;;;;;21.17;67.60;100916.24;5143968;57;1144773;-72
2022/06/04 07:31:14;;;;;;;21.33;4.60;;;;;;;21.40;65.80;100923.00;5160378;55;1141062;-71
2022/06/04 07:36:25;;;;;;;6.03;3.30;;;;;;;21.59;64.51;100917.13;5259547;55;1141012;-71
2022/06/04 07:41:35;;;;;;;4.33;3.92;;;;;;;21.80;64.94;100912.42;5242873;55;1139009;-73
2022/06/04 07:46:40;;;;;;;15.18;5.87;;;;;;;;;;5241954;55;1139257;-72
2022/06/04 07:51:46;;;;;;;6.30;4.40;;;;;;;22.23;65.24;100930.20;5246142;55;819996;-72
2022/06/04 07:56:54;;;;;;;6.35;4.75;;;;;;;22.28;64.92;100935.37;5300474;55;1136847;-74
2022/06/04 08:01:59;;;;;;;5.67;4.33;;;;;;;22.34;65.58;100930.58;5284486;55;1138938;-74
2022/06/04 08:07:06;;;;;;;5.78;4.55;;;;;;;22.55;65.59;100928.49;5287587;55;1139037;-73
2022/06/04 08:12:12;;;;;;;9.13;5.28;;;;;;;22.71;64.82;100937.73;5306073;55;1139145;-73
2022/06/04 08:17:19;;;;;;;10.40;4.80;;;;;;;22.72;64.23;100943.96;5251539;55;1138996;-73
2022/06/04 08:22:26;;;;;;;9.98;5.97;;;;;;;22.64;63.55;100941.34;5250902;55;1141072;-73
2022/06/04 08:27:32;;;;;;;10.32;5.28;;;;;;;22.57;63.28;100935.89;5298202;55;1138998;-73
2022/06/04 08:32:38;;;;;;;10.13;5.40;;;;;;;22.65;64.28;100937.63;5307068;55;1141386;-74
2022/06/04 08:37:45;;;;;;;6.78;5.95;;;;;;;23.05;65.87;100944.41;5306919;55;1141049;-74
2022/06/04 08:43:21;;;;;;;9.43;5.72;;;;;;;23.45;65.59;100941.09;5239490;55;1138965;-73
2022/06/04 08:48:34;;;;;;;14.40;4.97;;;;;;;23.63;63.57;100946.59;5218736;55;1139009;-73
2022/06/04 08:53:41;;;;;;;10.08;5.80;;;;;;;23.66;62.31;100943.00;5218502;56;1141271;-72
2022/06/04 08:59:08;;;;;;;20.30;5.55;;;;;;;23.63;60.81;100938.49;5246528;55;1141097;-74
2022/06/04 09:04:52;;;;;;;20.37;8.43;;;;;;;23.55;61.10;100945.36;5045752;58;1141177;-74
2022/06/04 09:10:11;;;;;;;11.80;7.37;;;;;;;23.66;62.04;100948.41;5021755;58;1139054;-72
2022/06/04 09:15:33;;;;;;;11.03;4.85;;;;;;;24.05;62.21;100941.13;5038261;57;1139184;-73
2022/06/04 09:20:43;;;;;;;7.10;4.57;;;;;;;24.14;58.05;100946.69;5028130;58;1139121;-73
2022/06/04 09:26:13;;;;;;;12.05;4.58;;;;;;;24.20;56.96;100941.02;5020877;58;1136926;-73
2022/06/04 09:31:29;;;;;;;11.83;3.77;;;;;;;24.26;56.45;100942.98;5005511;58;21144;-73
2022/06/04 09:36:45;;;;;;;6.43;2.87;;;;;;;24.27;53.63;100954.63;5045557;58;1136919;-73
2022/06/04 09:42:01;;;;;;;3.77;3.27;;;;;;;24.19;53.84;100950.16;5024698;58;1139034;-73
2022/06/04 09:47:12;;;;;;;6.10;2.77;;;;;;;24.25;53.90;100945.87;5130190;57;1138996;-73
2022/06/04 09:52:39;;;;;;;9.70;4.95;;;;;;;24.32;51.28;100952.14;5130544;56;1139104;-73
2022/06/04 09:57:58;;;;;;;45.43;3.90;;;;;;;24.42;51.47;100945.89;5152026;56;1138975;-73
2022/06/04 10:03:14;;;;;;;4.70;3.45;;;;;;;24.49;52.43;100946.23;5213925;56;1141036;-72
2022/06/04 10:08:26;;;;;;;9.25;3.45;;;;;;;24.88;50.79;100955.59;5202921;56;1138953;-72
2022/06/04 10:13:45;;;;;;;9.40;2.92;;;;;;;25.27;50.56;100958.13;5141526;56;1138991;-72
2022/06/04 10:19:19;;;;;;;8.28;2.45;;;;;;;25.52;47.54;100951.93;5147127;56;1139078;-72
2022/06/04 10:24:31;;;;;;;3.80;2.35;;;;;;;25.80;47.42;100955.03;5148252;56;1138656;-72
2022/06/04 10:30:01;;;;;;;5.90;2.33;;;;;;;26.02;44.04;100957.83;5215444;56;1139275;-72
2022/06/04 10:35:23;;;;;;;4.22;2.08;;;;;;;26.07;43.20;100947.72;5215927;56;1136826;-73
2022/06/04 10:40:51;;;;;;;2.00;1.80;;;;;;;26.10;41.05;100943.24;5214271;56;1137164;-72
2022/06/04 10:46:23;;;;;;;5.50;1.72;;;;;;;26.20;39.97;100940.41;5136085;56;1136852;-72
2022/06/04 10:51:57;;;;;;;9.23;5.22;;;;;;;26.22;40.62;100949.16;5147402;56;1134821;-72
2022/06/04 10:57:25;;;;;;;5.08;2.52;;;;;;;26.46;40.34;100950.39;5166872;56;1139080;-73
2022/06/04 11:03:02;;;;;;;5.15;1.82;;;;;;;26.64;40.84;100956.50;5122747;56;1139237;-72
2022/06/04 11:08:40;;;;;;;1.98;1.60;;;;;;;26.80;41.58;100945.69;5173986;56;1139047;-73
2022/06/04 11:13:57;;;;;;;5.90;1.60;;;;;;;26.83;40.14;100949.34;5215682;56;1138911;-73
2022/06/04 11:19:22;;;;;;;1.67;1.52;;;;;;;26.69;38.76;100950.44;5206942;56;1138921;-74
2022/06/04 11:24:35;;;;;;;4.42;1.42;;;;;;;26.55;39.49;100947.77;5163989;56;1139030;-73
2022/06/04 11:29:42;;;;;;;27.73;3.08;;;;;;;26.39;39.38;100956.89;5208979;56;1138957;-73
2022/06/04 11:35:23;;;;;;;9.38;1.55;;;;;;;26.26;40.62;100968.05;5196439;55;1141062;-73
2022/06/04 11:40:37;;;;;;;3.92;3.00;;;;;;;26.13;38.54;100974.81;5201227;55;1137138;-74
2022/06/04 11:46:20;;;;;;;3.55;2.25;;;;;;;25.92;38.43;100979.94;5234235;55;1136868;-73
2022/06/04 11:51:43;;;;;;;4.67;1.70;;;;;;;25.81;39.27;100968.90;5162488;56;1136997;-73
2022/06/04 11:57:07;;;;;;;;;;;;;;;25.69;38.74;100961.88;5178631;56;21214;-73
2022/06/04 12:02:24;;;;;;;1.70;1.37;;;;;;;25.65;39.44;100969.30;5156836;56;972159;-73
2022/06/04 12:07:43;;;;;;;1.45;1.42;;;;;;;25.67;37.67;100969.37;5164975;56;1136962;-74
2022/06/04 12:13:05;;;;;;;1.32;1.30;;;;;;;25.66;38.17;100962.84;5130561;57;1139203;-74
2022/06/04 12:18:28;;;;;;;;;;;;;;;25.72;38.96;100957.93;5134374;57;1139192;-73
2022/06/04 12:29:32;;;;;;;2.35;2.10;;;;;;;26.24;39.80;100951.15;5161283;56;1137016;-73
2022/06/04 12:34:41;;;;;;;3.47;2.10;;;;;;;26.39;39.00;100945.52;5218765;56;1139210;-73
2022/06/04 12:39:47;;;;;;;4.90;4.25;;;;;;;26.56;39.63;100944.53;5167946;56;1139015;-73
2022/06/04 12:45:02;;;;;;;30.88;25.40;;;;;;;26.66;38.94;100942.20;5173616;56;1138953;-73
2022/06/04 12:50:24;;;;;;;6.40;5.90;;;;;;;26.96;38.91;100947.95;5156179;56;1143334;-73
2022/06/04 12:55:48;;;;;;;5.33;2.40;;;;;;;27.19;38.87;100936.58;5205377;56;1137170;-73
2022/06/04 13:01:19;;;;;;;3.37;2.40;;;;;;;27.35;38.13;100929.23;5160746;57;1136917;-73
2022/06/04 13:06:39;;;;;;;2.90;2.17;;;;;;;27.36;37.32;100926.83;5160497;57;1136961;-73
2022/06/04 13:12:04;;;;;;;3.33;1.90;;;;;;;27.30;37.37;100926.36;5134316;57;1136973;-72
2022/06/04 13:17:52;;;;;;;4.70;2.37;;;;;;;27.24;37.32;100930.77;5132852;57;1138938;-73
2022/06/04 13:23:31;;;;;;;1.98;1.87;;;;;;;27.36;38.42;100924.11;5133348;57;1138886;-73
2022/06/04 13:28:41;;;;;;;2.00;1.90;;;;;;;27.61;36.88;100930.46;5149347;56;1138874;-74
2022/06/04 13:33:47;;;;;;;6.55;2.87;;;;;;;27.59;34.89;100932.56;5167496;56;1139181;-72
2022/06/04 13:38:58;;;;;;;9.78;2.17;;;;;;;27.63;36.46;100930.25;5251931;55;1138921;-73
2022/06/04 13:44:06;;;;;;;6.20;2.25;;;;;;;27.72;37.25;100939.77;5250168;55;1139450;-72
2022/06/04 13:49:25;;;;;;;5.95;3.35;;;;;;;27.67;37.47;100938.23;5251739;55;1139004;-73
2022/06/04 13:54:37;;;;;;;2.95;2.60;;;;;;;27.66;37.86;100944.72;5187655;56;1138956;-72
2022/06/04 13:59:49;;;;;;;4.28;2.10;;;;;;;27.77;37.64;100936.41;5251943;55;1139146;-72
2022/06/04 14:10:25;;;;;;;3.35;2.67;;;;;;;27.79;38.12;100945.17;5251605;55;1141318;-72
2022/06/04 14:15:47;;;;;;;3.70;1.77;;;;;;;27.63;37.55;100947.91;5251742;55;1139198;-72
2022/06/04 14:21:03;;;;;;;5.58;2.90;;;;;;;27.53;37.62;100949.70;5233251;55;1136997;-73
2022/06/04 14:26:29;;;;;;;4.08;2.30;;;;;;;27.41;37.75;100958.25;5096509;57;1136943;-72
2022/06/04 14:31:59;;;;;;;6.78;4.50;;;;;;;27.32;37.89;100956.86;5211265;56;1136856;-72
2022/06/04 14:37:07;;;;;;;2.02;1.92;;;;;;;27.18;38.45;100947.95;5031425;58;1136902;-72
2022/06/04 14:42:45;;;;;;;2.67;2.42;;;;;;;27.05;38.25;100941.22;5053012;57;1134873;-72
2022/06/04 14:48:19;;;;;;;5.60;2.60;;;;;;;26.97;38.44;100945.55;5226876;55;1138979;-73
2022/06/04 14:53:25;;;;;;;14.93;7.47;;;;;;;26.90;38.54;100946.89;5268245;55;1138926;-72
2022/06/04 14:59:00;;;;;;;8.75;2.47;;;;;;;26.95;39.52;100944.41;5234363;55;1141100;-73
2022/06/04 15:04:58;;;;;;;2.52;2.30;;;;;;;26.95;38.52;100950.36;5215870;56;1139235;-72
2022/06/04 15:10:35;;;;;;;10.08;2.20;;;;;;;26.89;38.93;100941.15;5306688;55;1139239;-72
2022/06/04 15:16:09;;;;;;;11.45;1.85;;;;;;;26.85;38.78;100939.94;5306730;55;1141337;-73
2022/06/04 15:21:37;;;;;;;3.02;1.77;;;;;;;26.82;39.00;100938.17;5202482;56;1138993;-73
2022/06/04 15:27:14;;;;;;;1.80;1.70;;;;;;;26.77;39.32;100944.76;5223360;55;1136850;-72
2022/06/04 15:38:12;;;;;;;2.72;2.50;;;;;;;26.69;39.44;100945.84;5228550;56;1138986;-71
2022/06/04 15:43:33;;;;;;;7.10;4.00;;;;;;;26.63;39.06;100948.05;5209092;55;1138904;-73
2022/06/04 15:48:41;;;;;;;4.92;4.05;;;;;;;26.49;39.18;100945.06;5194850;56;1138953;-72
2022/06/04 15:59:40;;;;;;;4.80;2.80;;;;;;;26.31;39.91;100943.53;5186552;56;1139024;-72
2022/06/04 16:05:02;;;;;;;3.43;2.77;;;;;;;26.33;40.42;100946.88;5131374;57;1139008;-72
2022/06/04 16:10:15;;;;;;;4.40;3.65;;;;;;;26.32;40.16;100940.61;5130168;57;1139001;-72
2022/06/04 16:15:55;;;;;;;4.22;2.95;;;;;;;26.31;40.20;100942.17;5230093;55;1138975;-72
2022/06/04 16:21:20;;;;;;;3.00;2.37;;;;;;;26.20;40.08;100950.41;5290836;55;1139088;-72
2022/06/04 16:26:51;;;;;;;2.35;2.25;;;;;;;26.12;40.43;100947.94;5250492;55;1136903;-72
2022/06/04 16:32:14;;;;;;;3.53;2.70;;;;;;;26.13;40.80;100949.05;5217039;56;1137024;-72
2022/06/04 16:37:36;;;;;;;2.40;2.20;;;;;;;26.07;40.72;100950.43;5216670;56;1136860;-72
2022/06/04 16:42:56;;;;;;;3.95;2.80;;;;;;;26.03;40.28;100960.85;5228256;55;1134812;-72
2022/06/04 16:48:08;;;;;;;6.23;3.10;;;;;;;25.85;40.66;100960.64;5303245;55;1138995;-72
2022/06/04 16:53:11;;;;;;;4.72;2.42;;;;;;;25.74;40.93;100967.52;5304139;55;1139178;-72
2022/06/04 16:58:17;;;;;;;4.03;3.05;;;;;;;25.68;41.10;100967.50;5210722;56;1138994;-72
2022/06/04 17:03:39;;;;;;;2.90;2.65;;;;;;;25.68;41.63;100963.44;5216271;56;1138951;-72
2022/06/04 17:09:01;;;;;;;6.92;3.60;;;;;;;25.70;41.72;100962.20;5284764;55;1138904;-72
2022/06/04 17:14:20;;;;;;;3.40;3.00;;;;;;;25.72;41.99;100958.77;5210835;56;1139075;-72
2022/06/04 17:19:43;;;;;;;2.90;2.62;;;;;;;25.80;42.30;100962.64;5213355;56;1139125;-72
2022/06/04 17:25:10;;;;;;;3.27;2.10;;;;;;;25.80;42.15;100965.87;5242079;55;1139420;-71
2022/06/04 17:30:20;;;;;;;5.90;2.75;;;;;;;25.79;42.73;100972.33;5306606;55;1138871;-72
2022/06/04 17:36:03;;;;;;;16.17;4.43;;;;;;;25.81;43.01;100974.31;5305974;55;1138884;-71
2022/06/04 17:41:15;;;;;;;7.83;4.40;;;;;;;25.76;43.18;100976.80;5307333;55;1140998;-71
2022/06/04 17:46:21;;;;;;;7.08;4.97;;;;;;;25.63;43.74;100976.27;5231312;55;1136874;-72
2022/06/04 17:51:29;;;;;;;11.15;5.33;;;;;;;25.55;44.15;100969.65;5202956;56;1137037;-72
2022/06/04 17:56:34;;;;;;;9.03;3.67;;;;;;;25.48;44.49;100974.23;5176136;56;1139064;-72
2022/06/04 18:01:41;;;;;;;17.15;5.22;;;;;;;25.39;44.77;100969.52;5155131;56;1136875;-72
2022/06/04 18:06:47;;;;;;;43.15;10.32;;;;;;;25.25;45.66;100977.29;5105633;57;1139007;-72
2022/06/04 18:11:54;;;;;;;8.80;4.60;;;;;;;25.09;46.69;100983.06;5125842;56;1141056;-72
2022/06/04 18:17:00;;;;;;;18.37;5.72;;;;;;;24.93;46.76;100991.50;5113295;57;1136971;-72
2022/06/04 18:22:06;;;;;;;10.15;4.92;;;;;;;24.78;48.06;100995.69;5122010;57;1139162;-72
2022/06/04 18:27:12;;;;;;;13.68;7.70;;;;;;;24.64;48.89;101000.71;5151458;55;1139256;-72
2022/06/04 18:32:18;;;;;;;11.78;7.88;;;;;;;24.53;49.35;100999.41;5242545;55;1138898;-72
2022/06/04 18:37:31;;;;;;;14.40;7.37;;;;;;;24.41;49.74;100998.30;5163570;56;1139142;-73
2022/06/04 18:58:47;;;;;;;11.05;4.45;;;;;;;24.23;50.13;101024.95;5230353;55;1141113;-73
2022/06/04 19:03:53;;;;;;;8.90;5.08;;;;;;;24.05;50.43;101028.95;5241986;56;1141209;-72
2022/06/04 19:09:05;;;;;;;8.43;5.27;;;;;;;23.96;50.98;101038.23;5242247;56;1138987;-72
2022/06/04 19:14:07;;;;;;;9.30;5.35;;;;;;;23.92;51.83;101044.21;5241307;56;1139022;-72
2022/06/04 19:19:17;;;;;;;13.18;6.83;;;;;;;23.91;52.12;101052.83;5211213;56;1138939;-72
2022/06/04 19:24:39;;;;;;;12.90;6.35;;;;;;;23.95;52.95;101069.50;5242125;56;1140995;-72
2022/06/04 19:29:52;;;;;;;11.87;5.13;;;;;;;23.80;52.57;101092.52;5230328;56;1141241;-72
2022/06/04 19:34:58;;;;;;;8.20;4.80;;;;;;;23.38;53.67;101110.76;5182764;56;1141003;-72
2022/06/04 19:40:04;;;;;;;3.98;3.65;;;;;;;22.62;59.44;101129.44;5214471;56;1138973;-72
2022/06/04 19:45:11;;;;;;;7.95;4.53;;;;;;;21.75;64.48;101146.38;5176152;56;1138985;-72
2022/06/04 19:50:16;;;;;;;6.37;4.45;;;;;;;21.28;64.59;101158.00;5214528;55;1139220;-72
2022/06/04 19:55:22;;;;;;;5.03;4.53;;;;;;;20.94;67.56;101146.63;5196674;55;1139178;-72
2022/06/04 20:00:30;;;;;;;7.47;5.78;;;;;;;20.74;67.91;101152.89;5206798;56;1138972;-72
2022/06/04 20:05:36;;;;;;;5.40;4.83;;;;;;;20.64;68.85;101167.83;5210692;56;1139038;-72
2022/06/04 20:10:42;;;;;;;8.03;4.72;;;;;;;20.66;68.68;101174.38;5198740;56;1138990;-72
2022/06/04 20:15:49;;;;;;;7.87;3.50;;;;;;;20.66;68.05;101173.88;5168023;56;1139033;-72
2022/06/04 20:20:55;;;;;;;5.03;4.20;;;;;;;20.77;67.86;101166.00;5142056;56;1138984;-72
2022/06/04 20:26:00;;;;;;;7.95;6.60;;;;;;;20.83;67.72;101164.46;5176011;56;1139008;-72
2022/06/04 20:31:11;;;;;;;11.97;6.90;;;;;;;20.85;67.88;101171.35;5188237;55;1139028;-72
2022/06/04 20:36:18;;;;;;;19.37;10.50;;;;;;;20.87;67.75;101176.56;5161272;56;1141076;-71
2022/06/04 20:41:26;;;;;;;12.37;5.70;;;;;;;20.98;67.55;101182.93;5142707;57;1143161;-72
2022/06/04 20:46:33;;;;;;;10.65;5.47;;;;;;;21.02;67.51;101180.23;5168218;56;1141035;-71
2022/06/04 20:51:40;;;;;;;3.95;3.55;;;;;;;21.09;67.49;101183.91;5154152;56;1141062;-71
2022/06/04 20:56:47;;;;;;;5.35;3.75;;;;;;;21.14;67.80;101180.21;5151610;56;1138978;-72
2022/06/04 21:01:53;;;;;;;7.70;4.05;;;;;;;21.06;67.25;101166.80;5137952;57;1139024;-73
2022/06/04 21:06:59;;;;;;;3.30;3.08;;;;;;;21.08;67.24;101178.73;5174071;56;1138996;-72
2022/06/04 21:12:05;;;;;;;9.98;6.40;;;;;;;21.13;66.97;101192.48;5138113;57;1136927;-72
2022/06/04 21:17:10;;;;;;;31.85;24.35;;;;;;;20.95;66.61;101205.61;5135297;56;1137167;-72
2022/06/04 21:22:16;;;;;;;13.75;6.45;;;;;;;20.91;67.00;101209.67;5201306;56;1141077;-72
2022/06/04 21:27:23;;;;;;;13.22;4.28;;;;;;;20.88;66.91;101214.05;5192747;56;1139199;-72
2022/06/04 21:32:35;;;;;;;14.93;4.00;;;;;;;20.77;67.17;101206.83;5178703;56;1139103;-72
2022/06/04 21:37:43;;;;;;;4.83;4.33;;;;;;;20.74;67.59;101218.75;5201956;56;1138977;-72
2022/06/04 21:42:51;;;;;;;9.83;4.22;;;;;;;20.68;67.42;101230.16;5192319;56;1136942;-72
2022/06/04 21:47:59;;;;;;;8.03;5.37;;;;;;;20.55;67.19;101242.75;5213308;56;1137002;-73
2022/06/04 21:53:08;;;;;;;14.65;5.80;;;;;;;20.42;67.44;101245.59;5217193;56;1136922;-73
2022/06/04 21:58:13;;;;;;;9.63;5.42;;;;;;;20.13;68.38;101254.89;5184386;56;1139227;-73
2022/06/04 22:03:19;;;;;;;9.08;4.85;;;;;;;20.13;68.38;101254.89;5214786;56;1136885;-72
2022/06/04 22:08:26;;;;;;;7.08;4.35;;;;;;;20.07;68.96;101249.33;5237284;56;1136891;-72
2022/06/04 22:13:31;;;;;;;8.88;3.95;;;;;;;19.96;67.87;101243.75;5208639;56;1136912;-73
2022/06/04 22:18:38;;;;;;;5.78;4.67;;;;;;;19.82;67.78;101236.31;5218171;56;1136951;-72
2022/06/04 22:23:47;;;;;;;5.20;4.17;;;;;;;19.69;67.86;101235.92;5195689;56;1137065;-73
2022/06/04 22:28:52;;;;;;;8.15;4.67;;;;;;;19.66;67.65;101243.30;5242222;56;1134799;-72
2022/06/04 22:33:58;;;;;;;7.17;4.30;;;;;;;19.48;66.90;101251.03;5241645;56;1181266;-72
2022/06/04 22:39:05;;;;;;;7.12;4.70;;;;;;;19.23;66.25;101254.08;5242458;56;1138999;-72
2022/06/04 22:44:11;;;;;;;8.97;5.10;;;;;;;18.93;66.65;101246.82;5242524;56;1139084;-72
2022/06/04 22:49:16;;;;;;;7.35;4.92;;;;;;;18.84;66.88;101261.13;5153348;57;1138933;-72
2022/06/04 22:54:29;;;;;;;8.33;4.67;;;;;;;18.67;66.73;101271.36;5151425;57;1139088;-73
2022/06/04 22:59:38;;;;;;;9.20;5.47;;;;;;;18.51;66.96;101271.16;5072217;58;1139037;-72
2022/06/04 23:04:44;;;;;;;8.18;5.90;;;;;;;18.43;67.48;101260.37;5082669;56;1138985;-73
2022/06/04 23:20:46;;;;;;;7.62;5.95;;;;;;;17.96;69.04;101258.33;5237548;56;1141094;-72
2022/06/04 23:26:05;;;;;;;9.15;6.90;;;;;;;17.81;69.33;101262.84;5163859;56;1138987;-72
2022/06/04 23:31:12;;;;;;;12.17;7.40;;;;;;;17.72;69.64;101254.34;5146459;57;1139005;-72
2022/06/04 23:36:19;;;;;;;8.33;6.40;;;;;;;17.64;70.18;101251.58;5043842;58;1141096;-71
2022/06/04 23:46:50;;;;;;;17.63;8.63;;;;;;;17.62;70.86;101248.66;5053045;57;1141016;-72
2022/06/04 23:51:56;;;;;;;10.77;7.13;;;;;;;17.58;71.03;101236.06;5054553;58;1141210;-72
2022/06/04 23:57:02;;;;;;;11.50;8.00;;;;;;;17.57;70.96;101239.73;5053200;58;1141077;-72
